sensor_id;sensor_type;location;lat;lon;timestamp;pressure;altitude;pressure_sealevel;temperature;humidity
55932;BME280;41837;55.700;37.984;2022-12-11T00:01:12;99259.34;;;0.14;100.00
55932;BME280;41837;55.700;37.984;2022-12-11T00:03:39;99261.88;;;0.21;100.00
55932;BME280;41837;55.700;37.984;2022-12-11T00:06:10;99263.50;;;0.32;100.00
55932;BME280;41837;55.700;37.984;2022-12-11T00:08:37;99268.63;;;0.31;100.00
55932;BME280;41837;55.700;37.984;2022-12-11T00:11:06;99256.66;;;0.25;100.00
55932;BME280;41837;55.700;37.984;2022-12-11T00:13:33;99261.88;;;0.19;100.00
55932;BME280;41837;55.700;37.984;2022-12-11T00:15:59;99246.47;;;0.17;100.00
55932;BME280;41837;55.700;37.984;2022-12-11T00:18:25;99260.22;;;0.12;100.00
55932;BME280;41837;55.700;37.984;2022-12-11T00:20:52;99249.84;;;0.23;100.00
55932;BME280;41837;55.700;37.984;2022-12-11T00:23:19;99236.25;;;0.10;100.00
55932;BME280;41837;55.700;37.984;2022-12-11T00:25:46;99243.94;;;0.11;100.00
55932;BME280;41837;55.700;37.984;2022-12-11T00:28:16;99226.94;;;-0.04;100.00
55932;BME280;41837;55.700;37.984;2022-12-11T00:30:44;99238.84;;;0.07;100.00
55932;BME280;41837;55.700;37.984;2022-12-11T00:33:12;99246.50;;;0.16;100.00
55932;BME280;41837;55.700;37.984;2022-12-11T00:35:40;99257.59;;;0.20;100.00
55932;BME280;41837;55.700;37.984;2022-12-11T00:38:07;99245.72;;;0.06;100.00
55932;BME280;41837;55.700;37.984;2022-12-11T00:40:35;99244.03;;;0.04;100.00
55932;BME280;41837;55.700;37.984;2022-12-11T00:43:02;99252.53;;;0.10;100.00
55932;BME280;41837;55.700;37.984;2022-12-11T00:45:29;99261.72;;;0.36;100.00
55932;BME280;41837;55.700;37.984;2022-12-11T00:47:55;99228.50;;;0.16;100.00
55932;BME280;41837;55.700;37.984;2022-12-11T00:50:21;99256.59;;;0.36;100.00
55932;BME280;41837;55.700;37.984;2022-12-11T00:52:47;99237.06;;;0.16;100.00
55932;BME280;41837;55.700;37.984;2022-12-11T00:55:14;99233.75;;;0.05;100.00
55932;BME280;41837;55.700;37.984;2022-12-11T00:57:40;99244.03;;;0.02;100.00
55932;BME280;41837;55.700;37.984;2022-12-11T01:00:06;99248.31;;;0.02;100.00
55932;BME280;41837;55.700;37.984;2022-12-11T01:02:33;99261.09;;;0.12;100.00
55932;BME280;41837;55.700;37.984;2022-12-11T01:04:59;99265.34;;;0.15;100.00
55932;BME280;41837;55.700;37.984;2022-12-11T01:07:25;99264.38;;;0.27;100.00
55932;BME280;41837;55.700;37.984;2022-12-11T01:09:52;99244.84;;;0.10;100.00
55932;BME280;41837;55.700;37.984;2022-12-11T01:12:37;99269.50;;;0.30;100.00
55932;BME280;41837;55.700;37.984;2022-12-11T01:15:04;99271.22;;;0.31;100.00
55932;BME280;41837;55.700;37.984;2022-12-11T01:17:31;99274.66;;;0.25;100.00
55932;BME280;41837;55.700;37.984;2022-12-11T01:19:57;99271.34;;;0.15;100.00
55932;BME280;41837;55.700;37.984;2022-12-11T01:22:24;99281.63;;;0.15;100.00
55932;BME280;41837;55.700;37.984;2022-12-11T01:24:50;99278.13;;;0.23;100.00
55932;BME280;41837;55.700;37.984;2022-12-11T01:27:16;99273.94;;;0.11;100.00
55932;BME280;41837;55.700;37.984;2022-12-11T01:29:42;99252.59;;;0.01;100.00
55932;BME280;41837;55.700;37.984;2022-12-11T01:32:08;99254.34;;;0.01;100.00
55932;BME280;41837;55.700;37.984;2022-12-11T01:34:35;99270.56;;;0.07;100.00
55932;BME280;41837;55.700;37.984;2022-12-11T01:37:02;99255.19;;;-0.04;100.00
55932;BME280;41837;55.700;37.984;2022-12-11T01:39:28;99272.16;;;0.22;100.00
55932;BME280;41837;55.700;37.984;2022-12-11T01:41:58;99267.06;;;0.14;100.00
55932;BME280;41837;55.700;37.984;2022-12-11T01:46:52;99271.25;;;0.25;100.00
55932;BME280;41837;55.700;37.984;2022-12-11T01:49:24;99277.22;;;0.30;100.00
55932;BME280;41837;55.700;37.984;2022-12-11T01:51:57;99275.63;;;0.15;100.00
55932;BME280;41837;55.700;37.984;2022-12-11T01:54:26;99274.63;;;0.30;100.00
55932;BME280;41837;55.700;37.984;2022-12-11T01:56:55;99273.69;;;0.39;100.00
55932;BME280;41837;55.700;37.984;2022-12-11T01:59:26;99277.91;;;0.46;100.00
55932;BME280;41837;55.700;37.984;2022-12-11T02:02:03;99263.41;;;0.40;100.00
55932;BME280;41837;55.700;37.984;2022-12-11T02:04:34;99281.22;;;0.59;100.00
55932;BME280;41837;55.700;37.984;2022-12-11T02:07:03;99270.91;;;0.62;100.00
55932;BME280;41837;55.700;37.984;2022-12-11T02:09:31;99273.41;;;0.68;100.00
55932;BME280;41837;55.700;37.984;2022-12-11T02:15:14;99265.72;;;0.66;100.00
55932;BME280;41837;55.700;37.984;2022-12-11T02:21:14;99266.56;;;0.67;100.00
55932;BME280;41837;55.700;37.984;2022-12-11T02:24:03;99281.19;;;0.62;100.00
55932;BME280;41837;55.700;37.984;2022-12-11T02:29:17;99276.91;;;0.59;100.00
55932;BME280;41837;55.700;37.984;2022-12-11T02:31:56;99284.84;;;0.39;100.00
55932;BME280;41837;55.700;37.984;2022-12-11T02:34:31;99288.25;;;0.43;100.00
55932;BME280;41837;55.700;37.984;2022-12-11T02:37:03;99278.66;;;0.57;100.00
55932;BME280;41837;55.700;37.984;2022-12-11T02:39:32;99283.03;;;0.47;100.00
55932;BME280;41837;55.700;37.984;2022-12-11T02:42:02;99304.50;;;0.46;100.00
55932;BME280;41837;55.700;37.984;2022-12-11T02:44:32;99303.72;;;0.38;100.00
55932;BME280;41837;55.700;37.984;2022-12-11T02:47:00;99300.34;;;0.28;100.00
55932;BME280;41837;55.700;37.984;2022-12-11T02:49:28;99316.53;;;0.41;100.00
55932;BME280;41837;55.700;37.984;2022-12-11T02:51:57;99308.03;;;0.33;100.00
55932;BME280;41837;55.700;37.984;2022-12-11T02:54:28;99306.34;;;0.30;100.00
55932;BME280;41837;55.700;37.984;2022-12-11T02:57:10;99326.81;;;0.44;100.00
55932;BME280;41837;55.700;37.984;2022-12-11T02:59:41;99324.25;;;0.43;100.00
55932;BME280;41837;55.700;37.984;2022-12-11T03:02:10;99319.19;;;0.29;100.00
55932;BME280;41837;55.700;37.984;2022-12-11T03:04:37;99317.53;;;0.23;100.00
55932;BME280;41837;55.700;37.984;2022-12-11T03:07:30;99321.69;;;0.43;100.00
55932;BME280;41837;55.700;37.984;2022-12-11T03:09:54;99334.59;;;0.35;100.00
55932;BME280;41837;55.700;37.984;2022-12-11T03:12:27;99316.56;;;0.36;100.00
55932;BME280;41837;55.700;37.984;2022-12-11T03:14:56;99331.88;;;0.50;100.00
55932;BME280;41837;55.700;37.984;2022-12-11T03:17:43;99303.84;;;0.23;100.00
55932;BME280;41837;55.700;37.984;2022-12-11T03:20:19;99336.44;;;0.16;100.00
55932;BME280;41837;55.700;37.984;2022-12-11T03:25:56;99353.47;;;0.32;100.00
55932;BME280;41837;55.700;37.984;2022-12-11T03:28:31;99353.53;;;0.25;100.00
55932;BME280;41837;55.700;37.984;2022-12-11T03:31:06;99361.22;;;0.25;100.00
55932;BME280;41837;55.700;37.984;2022-12-11T03:33:37;99356.13;;;0.18;100.00
55932;BME280;41837;55.700;37.984;2022-12-11T03:36:29;99363.81;;;0.25;100.00
55932;BME280;41837;55.700;37.984;2022-12-11T03:39:09;99356.97;;;0.22;100.00
55932;BME280;41837;55.700;37.984;2022-12-11T03:41:37;99351.84;;;0.21;100.00
55932;BME280;41837;55.700;37.984;2022-12-11T03:44:05;99370.56;;;0.35;100.00
55932;BME280;41837;55.700;37.984;2022-12-11T03:46:36;99343.09;;;0.43;100.00
55932;BME280;41837;55.700;37.984;2022-12-11T03:49:18;99371.47;;;0.31;100.00
55932;BME280;41837;55.700;37.984;2022-12-11T03:51:47;99378.44;;;0.12;100.00
55932;BME280;41837;55.700;37.984;2022-12-11T03:54:14;99375.03;;;0.13;100.00
55932;BME280;41837;55.700;37.984;2022-12-11T03:56:43;99374.28;;;-0.02;100.00
55932;BME280;41837;55.700;37.984;2022-12-11T03:59:10;99380.28;;;-0.06;100.00
55932;BME280;41837;55.700;37.984;2022-12-11T04:01:37;99387.94;;;0.04;100.00
55932;BME280;41837;55.700;37.984;2022-12-11T04:04:03;99382.84;;;-0.09;100.00
55932;BME280;41837;55.700;37.984;2022-12-11T04:06:30;99387.97;;;-0.04;100.00
55932;BME280;41837;55.700;37.984;2022-12-11T04:08:56;99394.03;;;-0.14;100.00
55932;BME280;41837;55.700;37.984;2022-12-11T04:11:23;99383.84;;;-0.28;100.00
55932;BME280;41837;55.700;37.984;2022-12-11T04:14:12;99384.66;;;-0.22;100.00
55932;BME280;41837;55.700;37.984;2022-12-11T04:16:59;99400.91;;;-0.23;100.00
55932;BME280;41837;55.700;37.984;2022-12-11T04:19:26;99411.16;;;-0.15;100.00
55932;BME280;41837;55.700;37.984;2022-12-11T04:22:13;99411.94;;;-0.01;100.00
55932;BME280;41837;55.700;37.984;2022-12-11T04:25:00;99400.97;;;-0.32;100.00
55932;BME280;41837;55.700;37.984;2022-12-11T04:27:29;99406.06;;;-0.21;100.00
55932;BME280;41837;55.700;37.984;2022-12-11T04:30:24;99420.56;;;-0.12;100.00
55932;BME280;41837;55.700;37.984;2022-12-11T04:32:52;99413.81;;;-0.32;100.00
55932;BME280;41837;55.700;37.984;2022-12-11T04:35:18;99418.88;;;-0.15;100.00
55932;BME280;41837;55.700;37.984;2022-12-11T04:37:45;99425.78;;;-0.28;100.00
55932;BME280;41837;55.700;37.984;2022-12-11T04:40:14;99430.97;;;-0.40;100.00
55932;BME280;41837;55.700;37.984;2022-12-11T04:42:41;99431.72;;;-0.16;100.00
55932;BME280;41837;55.700;37.984;2022-12-11T04:45:08;99429.19;;;-0.21;100.00
55932;BME280;41837;55.700;37.984;2022-12-11T04:47:36;99429.13;;;-0.10;100.00
55932;BME280;41837;55.700;37.984;2022-12-11T04:50:04;99423.22;;;-0.29;100.00
55932;BME280;41837;55.700;37.984;2022-12-11T04:52:31;99428.34;;;-0.29;100.00
55932;BME280;41837;55.700;37.984;2022-12-11T04:54:57;99434.31;;;-0.26;100.00
55932;BME280;41837;55.700;37.984;2022-12-11T04:57:23;99433.47;;;-0.25;100.00
55932;BME280;41837;55.700;37.984;2022-12-11T04:59:50;99436.09;;;-0.34;100.00
55932;BME280;41837;55.700;37.984;2022-12-11T05:02:16;99432.69;;;-0.42;100.00
55932;BME280;41837;55.700;37.984;2022-12-11T05:04:43;99432.66;;;-0.34;100.00
55932;BME280;41837;55.700;37.984;2022-12-11T05:07:09;99441.25;;;-0.43;100.00
55932;BME280;41837;55.700;37.984;2022-12-11T05:09:36;99435.28;;;-0.50;100.00
55932;BME280;41837;55.700;37.984;2022-12-11T05:12:02;99421.59;;;-0.58;100.00
55932;BME280;41837;55.700;37.984;2022-12-11T05:14:28;99407.09;;;-0.71;100.00
55932;BME280;41837;55.700;37.984;2022-12-11T05:16:57;99419.06;;;-0.63;100.00
55932;BME280;41837;55.700;37.984;2022-12-11T05:19:25;99440.47;;;-0.71;100.00
55932;BME280;41837;55.700;37.984;2022-12-11T05:21:51;99438.72;;;-0.63;100.00
55932;BME280;41837;55.700;37.984;2022-12-11T05:24:18;99450.72;;;-0.68;100.00
55932;BME280;41837;55.700;37.984;2022-12-11T05:26:44;99442.19;;;-0.77;100.00
55932;BME280;41837;55.700;37.984;2022-12-11T05:29:11;99449.88;;;-0.67;100.00
55932;BME280;41837;55.700;37.984;2022-12-11T05:31:37;99446.47;;;-0.71;100.00
55932;BME280;41837;55.700;37.984;2022-12-11T05:34:06;99461.00;;;-0.56;100.00
55932;BME280;41837;55.700;37.984;2022-12-11T05:36:33;99464.41;;;-0.55;100.00
55932;BME280;41837;55.700;37.984;2022-12-11T05:39:01;99458.44;;;-0.68;100.00
55932;BME280;41837;55.700;37.984;2022-12-11T05:41:29;99461.84;;;-0.65;100.00
55932;BME280;41837;55.700;37.984;2022-12-11T05:43:56;99481.53;;;-0.62;100.00
55932;BME280;41837;55.700;37.984;2022-12-11T05:46:28;99489.19;;;-0.45;100.00
55932;BME280;41837;55.700;37.984;2022-12-11T05:48:58;99485.78;;;-0.47;100.00
55932;BME280;41837;55.700;37.984;2022-12-11T05:51:25;99490.06;;;-0.54;100.00
55932;BME280;41837;55.700;37.984;2022-12-11T05:53:53;99502.91;;;-0.60;100.00
55932;BME280;41837;55.700;37.984;2022-12-11T05:56:21;99478.13;;;-0.63;100.00
55932;BME280;41837;55.700;37.984;2022-12-11T05:58:48;99506.34;;;-0.49;100.00
55932;BME280;41837;55.700;37.984;2022-12-11T06:01:25;99513.16;;;-0.37;100.00
55932;BME280;41837;55.700;37.984;2022-12-11T06:03:53;99518.19;;;-0.15;100.00
55932;BME280;41837;55.700;37.984;2022-12-11T06:06:19;99523.44;;;-0.37;100.00
55932;BME280;41837;55.700;37.984;2022-12-11T06:08:49;99523.44;;;-0.46;100.00
55932;BME280;41837;55.700;37.984;2022-12-11T06:11:16;99536.28;;;-0.35;100.00
55932;BME280;41837;55.700;37.984;2022-12-11T06:13:42;99525.97;;;-0.29;100.00
55932;BME280;41837;55.700;37.984;2022-12-11T06:16:08;99542.25;;;-0.32;100.00
55932;BME280;41837;55.700;37.984;2022-12-11T06:18:37;99546.53;;;-0.46;100.00
55932;BME280;41837;55.700;37.984;2022-12-11T06:23:37;99566.25;;;-0.68;100.00
55932;BME280;41837;55.700;37.984;2022-12-11T06:26:03;99576.53;;;-0.61;100.00
55932;BME280;41837;55.700;37.984;2022-12-11T06:28:29;99571.38;;;-0.67;100.00
55932;BME280;41837;55.700;37.984;2022-12-11T06:30:59;99581.66;;;-0.56;100.00
55932;BME280;41837;55.700;37.984;2022-12-11T06:33:26;99573.94;;;-0.54;100.00
55932;BME280;41837;55.700;37.984;2022-12-11T06:35:53;99566.25;;;-0.56;100.00
55932;BME280;41837;55.700;37.984;2022-12-11T06:38:19;99566.25;;;-0.65;100.00
55932;BME280;41837;55.700;37.984;2022-12-11T06:40:53;99567.94;;;-0.58;100.00
55932;BME280;41837;55.700;37.984;2022-12-11T06:43:20;99555.97;;;-0.88;100.00
55932;BME280;41837;55.700;37.984;2022-12-11T06:45:46;99579.06;;;-0.71;100.00
55932;BME280;41837;55.700;37.984;2022-12-11T06:48:12;99571.41;;;-0.58;100.00
55932;BME280;41837;55.700;37.984;2022-12-11T06:50:39;99578.22;;;-0.47;100.00
55932;BME280;41837;55.700;37.984;2022-12-11T06:53:05;99565.38;;;-0.52;100.00
55932;BME280;41837;55.700;37.984;2022-12-11T06:55:36;99562.81;;;-0.58;100.00
55932;BME280;41837;55.700;37.984;2022-12-11T06:58:03;99567.09;;;-0.46;100.00
55932;BME280;41837;55.700;37.984;2022-12-11T07:00:29;99574.78;;;-0.40;100.00
55932;BME280;41837;55.700;37.984;2022-12-11T07:02:56;99570.53;;;-0.49;100.00
55932;BME280;41837;55.700;37.984;2022-12-11T07:05:25;99567.94;;;-0.57;100.00
55932;BME280;41837;55.700;37.984;2022-12-11T07:07:55;99559.41;;;-0.65;100.00
55932;BME280;41837;55.700;37.984;2022-12-11T07:10:22;99573.09;;;-0.61;100.00
55932;BME280;41837;55.700;37.984;2022-12-11T07:12:51;99581.66;;;-0.71;100.00
55932;BME280;41837;55.700;37.984;2022-12-11T07:15:20;99561.97;;;-0.82;100.00
55932;BME280;41837;55.700;37.984;2022-12-11T07:17:47;99584.22;;;-0.79;100.00
55932;BME280;41837;55.700;37.984;2022-12-11T07:20:14;99583.34;;;-0.57;100.00
55932;BME280;41837;55.700;37.984;2022-12-11T07:22:41;99592.78;;;-0.60;100.00
55932;BME280;41837;55.700;37.984;2022-12-11T07:25:08;99594.50;;;-0.65;100.00
55932;BME280;41837;55.700;37.984;2022-12-11T07:27:34;99610.75;;;-0.54;100.00
55932;BME280;41837;55.700;37.984;2022-12-11T07:30:00;99615.03;;;-0.45;100.00
55932;BME280;41837;55.700;37.984;2022-12-11T07:32:29;99611.59;;;-0.44;100.00
55932;BME280;41837;55.700;37.984;2022-12-11T07:34:56;99585.94;;;-0.67;100.00
55932;BME280;41837;55.700;37.984;2022-12-11T07:37:22;99595.31;;;-0.49;100.00
55932;BME280;41837;55.700;37.984;2022-12-11T07:39:49;99611.63;;;-0.64;100.00
55932;BME280;41837;55.700;37.984;2022-12-11T07:42:15;99614.16;;;-0.43;100.00
55932;BME280;41837;55.700;37.984;2022-12-11T07:44:42;99617.59;;;-0.44;100.00
55932;BME280;41837;55.700;37.984;2022-12-11T07:47:08;99597.06;;;-0.74;100.00
55932;BME280;41837;55.700;37.984;2022-12-11T07:49:37;99587.63;;;-0.66;100.00
55932;BME280;41837;55.700;37.984;2022-12-11T07:52:03;99618.44;;;-0.43;100.00
55932;BME280;41837;55.700;37.984;2022-12-11T07:54:29;99615.88;;;-0.37;100.00
55932;BME280;41837;55.700;37.984;2022-12-11T07:56:55;99621.00;;;-0.46;100.00
55932;BME280;41837;55.700;37.984;2022-12-11T07:59:22;99615.00;;;-0.33;100.00
55932;BME280;41837;55.700;37.984;2022-12-11T08:01:47;99600.47;;;-0.37;100.00
55932;BME280;41837;55.700;37.984;2022-12-11T08:04:14;99602.16;;;-0.30;100.00
55932;BME280;41837;55.700;37.984;2022-12-11T08:06:41;99608.16;;;-0.65;100.00
55932;BME280;41837;55.700;37.984;2022-12-11T08:09:09;99616.75;;;-0.47;100.00
55932;BME280;41837;55.700;37.984;2022-12-11T08:11:36;99628.72;;;-0.46;100.00
55932;BME280;41837;55.700;37.984;2022-12-11T08:14:04;99632.16;;;-0.29;100.00
55932;BME280;41837;55.700;37.984;2022-12-11T08:16:31;99620.16;;;-0.44;100.00
55932;BME280;41837;55.700;37.984;2022-12-11T08:18:58;99635.53;;;-0.21;100.00
55932;BME280;41837;55.700;37.984;2022-12-11T08:21:26;99630.44;;;-0.33;100.00
55932;BME280;41837;55.700;37.984;2022-12-11T08:23:53;99637.25;;;-0.26;100.00
55932;BME280;41837;55.700;37.984;2022-12-11T08:26:27;99625.28;;;-0.11;100.00
55932;BME280;41837;55.700;37.984;2022-12-11T08:28:55;99631.25;;;-0.06;100.00
55932;BME280;41837;55.700;37.984;2022-12-11T08:31:22;99631.25;;;-0.12;100.00
55932;BME280;41837;55.700;37.984;2022-12-11T08:33:50;99631.28;;;-0.29;100.00
55932;BME280;41837;55.700;37.984;2022-12-11T08:36:19;99634.69;;;-0.01;100.00
55932;BME280;41837;55.700;37.984;2022-12-11T08:38:49;99637.25;;;-0.07;100.00
55932;BME280;41837;55.700;37.984;2022-12-11T08:41:26;99638.13;;;-0.08;100.00
55932;BME280;41837;55.700;37.984;2022-12-11T08:43:54;99647.53;;;-0.09;100.00
55932;BME280;41837;55.700;37.984;2022-12-11T08:46:26;99649.25;;;-0.11;100.00
55932;BME280;41837;55.700;37.984;2022-12-11T08:48:54;99655.22;;;-0.10;100.00
55932;BME280;41837;55.700;37.984;2022-12-11T08:51:22;99645.81;;;-0.11;100.00
55932;BME280;41837;55.700;37.984;2022-12-11T08:53:49;99656.97;;;-0.32;100.00
55932;BME280;41837;55.700;37.984;2022-12-11T08:56:18;99658.69;;;-0.45;100.00
55932;BME280;41837;55.700;37.984;2022-12-11T08:58:45;99657.81;;;-0.23;100.00
55932;BME280;41837;55.700;37.984;2022-12-11T09:01:19;99657.84;;;-0.30;100.00
55932;BME280;41837;55.700;37.984;2022-12-11T09:03:46;99674.09;;;-0.39;100.00
55932;BME280;41837;55.700;37.984;2022-12-11T09:06:16;99671.53;;;-0.16;100.00
55932;BME280;41837;55.700;37.984;2022-12-11T09:08:44;99679.22;;;0.07;100.00
55932;BME280;41837;55.700;37.984;2022-12-11T09:11:14;99677.50;;;-0.06;100.00
55932;BME280;41837;55.700;37.984;2022-12-11T09:13:41;99679.25;;;-0.08;100.00
55932;BME280;41837;55.700;37.984;2022-12-11T09:16:10;99671.53;;;-0.07;100.00
55932;BME280;41837;55.700;37.984;2022-12-11T09:18:38;99673.22;;;-0.04;100.00
55932;BME280;41837;55.700;37.984;2022-12-11T09:21:07;99680.94;;;-0.09;100.00
55932;BME280;41837;55.700;37.984;2022-12-11T09:23:34;99690.38;;;-0.20;100.00
55932;BME280;41837;55.700;37.984;2022-12-11T09:26:05;99682.66;;;0.00;100.00
55932;BME280;41837;55.700;37.984;2022-12-11T09:28:33;99678.38;;;-0.04;100.00
55932;BME280;41837;55.700;37.984;2022-12-11T09:30:59;99683.50;;;-0.09;100.00
55932;BME280;41837;55.700;37.984;2022-12-11T09:33:25;99704.94;;;-0.24;100.00
55932;BME280;41837;55.700;37.984;2022-12-11T09:35:57;99704.06;;;-0.27;100.00
55932;BME280;41837;55.700;37.984;2022-12-11T09:38:25;99703.19;;;-0.31;100.00
55932;BME280;41837;55.700;37.984;2022-12-11T09:40:51;99709.22;;;-0.13;100.00
55932;BME280;41837;55.700;37.984;2022-12-11T09:43:37;99706.63;;;-0.03;100.00
55932;BME280;41837;55.700;37.984;2022-12-11T09:46:11;99708.34;;;-0.15;100.00
55932;BME280;41837;55.700;37.984;2022-12-11T09:48:42;99717.75;;;-0.36;100.00
55932;BME280;41837;55.700;37.984;2022-12-11T09:51:17;99728.03;;;-0.34;100.00
55932;BME280;41837;55.700;37.984;2022-12-11T09:53:47;99720.34;;;-0.30;100.00
55932;BME280;41837;55.700;37.984;2022-12-11T09:56:32;99715.19;;;-0.21;100.00
55932;BME280;41837;55.700;37.984;2022-12-11T09:59:18;99717.78;;;-0.28;100.00
55932;BME280;41837;55.700;37.984;2022-12-11T10:08:05;99735.75;;;-0.34;100.00
55932;BME280;41837;55.700;37.984;2022-12-11T10:13:15;99734.84;;;-0.44;100.00
55932;BME280;41837;55.700;37.984;2022-12-11T10:15:53;99726.31;;;-0.45;100.00
55932;BME280;41837;55.700;37.984;2022-12-11T10:18:24;99720.31;;;-0.51;100.00
55932;BME280;41837;55.700;37.984;2022-12-11T10:20:52;99719.41;;;-0.84;100.00
55932;BME280;41837;55.700;37.984;2022-12-11T10:23:37;99716.88;;;-0.41;100.00
55932;BME280;41837;55.700;37.984;2022-12-11T10:26:16;99723.75;;;-0.43;100.00
55932;BME280;41837;55.700;37.984;2022-12-11T10:28:44;99730.59;;;-0.58;100.00
55932;BME280;41837;55.700;37.984;2022-12-11T10:31:18;99722.88;;;-0.59;100.00
55932;BME280;41837;55.700;37.984;2022-12-11T10:36:16;99711.75;;;-0.38;100.00
55932;BME280;41837;55.700;37.984;2022-12-11T10:38:44;99712.63;;;-0.45;100.00
55932;BME280;41837;55.700;37.984;2022-12-11T10:41:16;99708.31;;;-0.48;100.00
55932;BME280;41837;55.700;37.984;2022-12-11T10:43:45;99716.88;;;-0.60;100.00
55932;BME280;41837;55.700;37.984;2022-12-11T10:46:24;99723.69;;;-0.72;100.00
55932;BME280;41837;55.700;37.984;2022-12-11T10:48:58;99731.47;;;-0.37;100.00
55932;BME280;41837;55.700;37.984;2022-12-11T10:54:17;99703.13;;;-0.92;100.00
55932;BME280;41837;55.700;37.984;2022-12-11T10:56:53;99723.72;;;-0.62;100.00
55932;BME280;41837;55.700;37.984;2022-12-11T10:59:32;99717.66;;;-0.84;100.00
55932;BME280;41837;55.700;37.984;2022-12-11T11:02:00;99727.94;;;-0.81;100.00
55932;BME280;41837;55.700;37.984;2022-12-11T11:04:30;99716.88;;;-0.63;100.00
55932;BME280;41837;55.700;37.984;2022-12-11T11:07:01;99716.00;;;-0.72;100.00
55932;BME280;41837;55.700;37.984;2022-12-11T11:09:32;99710.03;;;-0.61;100.00
55932;BME280;41837;55.700;37.984;2022-12-11T11:12:00;99711.75;;;-0.63;100.00
55932;BME280;41837;55.700;37.984;2022-12-11T11:14:27;99716.88;;;-0.57;100.00
55932;BME280;41837;55.700;37.984;2022-12-11T11:16:55;99706.59;;;-0.66;100.00
55932;BME280;41837;55.700;37.984;2022-12-11T11:19:29;99699.69;;;-0.85;100.00
55932;BME280;41837;55.700;37.984;2022-12-11T11:22:14;99696.28;;;-0.77;100.00
55932;BME280;41837;55.700;37.984;2022-12-11T11:24:54;99698.03;;;-0.76;100.00
55932;BME280;41837;55.700;37.984;2022-12-11T11:27:27;99706.56;;;-0.78;100.00
55932;BME280;41837;55.700;37.984;2022-12-11T11:29:58;99707.41;;;-0.84;100.00
55932;BME280;41837;55.700;37.984;2022-12-11T11:32:32;99707.41;;;-0.91;100.00
55932;BME280;41837;55.700;37.984;2022-12-11T11:37:41;99707.41;;;-0.82;100.00
55932;BME280;41837;55.700;37.984;2022-12-11T11:40:24;99699.75;;;-0.76;100.00
55932;BME280;41837;55.700;37.984;2022-12-11T11:43:03;99700.50;;;-1.09;100.00
55932;BME280;41837;55.700;37.984;2022-12-11T11:48:43;99701.31;;;-1.17;100.00
55932;BME280;41837;55.700;37.984;2022-12-11T11:51:32;99708.16;;;-1.16;100.00
55932;BME280;41837;55.700;37.984;2022-12-11T11:54:11;99698.81;;;-0.95;100.00
55932;BME280;41837;55.700;37.984;2022-12-11T11:56:42;99703.97;;;-0.92;100.00
55932;BME280;41837;55.700;37.984;2022-12-11T11:59:20;99709.06;;;-0.95;100.00
55932;BME280;41837;55.700;37.984;2022-12-11T12:01:51;99707.41;;;-0.85;100.00
55932;BME280;41837;55.700;37.984;2022-12-11T12:04:18;99708.22;;;-0.99;100.00
55932;BME280;41837;55.700;37.984;2022-12-11T12:07:09;99713.38;;;-0.89;100.00
55932;BME280;41837;55.700;37.984;2022-12-11T12:12:25;99709.03;;;-1.07;100.00
55932;BME280;41837;55.700;37.984;2022-12-11T12:17:52;99720.09;;;-1.28;100.00
55932;BME280;41837;55.700;37.984;2022-12-11T12:26:34;99720.09;;;-1.28;100.00
55932;BME280;41837;55.700;37.984;2022-12-11T12:29:24;99720.09;;;-1.30;100.00
55932;BME280;41837;55.700;37.984;2022-12-11T12:32:13;99729.44;;;-1.38;100.00
55932;BME280;41837;55.700;37.984;2022-12-11T12:43:05;99735.47;;;-1.32;100.00
55932;BME280;41837;55.700;37.984;2022-12-11T12:45:50;99736.31;;;-1.31;100.00
55932;BME280;41837;55.700;37.984;2022-12-11T12:48:20;99725.09;;;-1.50;100.00
55932;BME280;41837;55.700;37.984;2022-12-11T12:50:49;99733.66;;;-1.48;100.00
55932;BME280;41837;55.700;37.984;2022-12-11T12:53:25;99732.78;;;-1.50;100.00
55932;BME280;41837;55.700;37.984;2022-12-11T12:55:53;99730.28;;;-1.44;100.00
55932;BME280;41837;55.700;37.984;2022-12-11T13:01:13;99740.44;;;-1.59;100.00
55932;BME280;41837;55.700;37.984;2022-12-11T13:03:53;99741.25;;;-1.68;100.00
55932;BME280;41837;55.700;37.984;2022-12-11T13:06:48;99731.97;;;-1.43;100.00
55932;BME280;41837;55.700;37.984;2022-12-11T13:09:25;99723.38;;;-1.57;100.00
55932;BME280;41837;55.700;37.984;2022-12-11T13:11:55;99725.94;;;-1.51;100.00
55932;BME280;41837;55.700;37.984;2022-12-11T13:14:31;99721.66;;;-1.54;100.00
55932;BME280;41837;55.700;37.984;2022-12-11T13:20:01;99715.63;;;-1.62;100.00
55932;BME280;41837;55.700;37.984;2022-12-11T13:22:28;99719.94;;;-1.56;100.00
55932;BME280;41837;55.700;37.984;2022-12-11T13:24:58;99713.06;;;-1.63;100.00
55932;BME280;41837;55.700;37.984;2022-12-11T13:32:32;99711.53;;;-1.34;100.00
55932;BME280;41837;55.700;37.984;2022-12-11T13:35:04;99701.22;;;-1.40;100.00
55932;BME280;41837;55.700;37.984;2022-12-11T13:37:34;99699.44;;;-1.53;100.00
55932;BME280;41837;55.700;37.984;2022-12-11T13:40:07;99682.38;;;-1.48;100.00
55932;BME280;41837;55.700;37.984;2022-12-11T13:42:40;99676.41;;;-1.47;100.00
55932;BME280;41837;55.700;37.984;2022-12-11T13:48:30;99690.97;;;-1.40;100.00
55932;BME280;41837;55.700;37.984;2022-12-11T13:50:59;99679.91;;;-1.29;100.00
55932;BME280;41837;55.700;37.984;2022-12-11T13:53:26;99666.19;;;-1.41;100.00
55932;BME280;41837;55.700;37.984;2022-12-11T13:56:04;99679.81;;;-1.50;100.00
55932;BME280;41837;55.700;37.984;2022-12-11T13:58:37;99673.81;;;-1.53;100.00
55932;BME280;41837;55.700;37.984;2022-12-11T14:01:10;99678.16;;;-1.38;100.00
55932;BME280;41837;55.700;37.984;2022-12-11T14:03:56;99665.31;;;-1.43;100.00
55932;BME280;41837;55.700;37.984;2022-12-11T14:06:25;99672.13;;;-1.48;100.00
55932;BME280;41837;55.700;37.984;2022-12-11T14:08:57;99670.44;;;-1.49;100.00
55932;BME280;41837;55.700;37.984;2022-12-11T14:11:30;99684.09;;;-1.47;100.00